No particular awareness of the weather is required.    There are no Weather-warnings

My Other Sites:

SYKIA HOMEWEATHERSTATIONsikeaweather.alinos.eu

SYKIA METEOTEMPLATEsykiameteo.alinos.eu

alinos.eualinos.eu



Nearby METAR Reports

   
LGEL - Elefsis (hel-Afb, Greece
Distance from station: E 77 km
Updated: 19-01-2020 07:50
Mostly Cloudy  
Mostly Cloudy  
   Wind: NNW 7.4 km/h
Wind: NNW 7.4 km/h
Temperature: 7°C
Wind Chill: 6°C
Dew Point: 3°C
Humidity: 76%
Barometer: 1021 hPa
Clouds: Mostly Cloudy
Visibility: More than 10 km
Cloud details: Few Clouds 1800 ft,
Mostly Cloudy 2500 ft
LGEL 190550Z 33004KT 9999 FEW018 BKN025 07/03 Q1021
LGRX - Araxos (civ/Afb), Greece
Distance from station: W 110 km
Updated: 19-01-2020 07:50
Mostly Cloudy  
Mostly Cloudy  
   Wind: ENE 13 km/h
Wind: ENE 13 km/h
Temperature: 8°C
Wind Chill: 6°C
Dew Point: 3°C
Humidity: 71%
Barometer: 1021 hPa
Clouds: Mostly Cloudy
Visibility: More than 10 km
Cloud details: Mostly Cloudy 8000 ft
LGRX 190550Z 07007KT 9999 BKN080 08/03 Q1021
LGAV - Athens/Elef-Ven, Greece
Distance from station: E 113 km
Updated: 19-01-2020 07:50
Mostly Cloudy  
Mostly Cloudy  
   Wind: NW 11.1 km/h
Wind: NW 11.1 km/h
Temperature: 8°C
Wind Chill: 6°C
Dew Point: 2°C
Humidity: 66%
Barometer: 1022 hPa
Clouds: Mostly Cloudy
Visibility: More than 10 km
Cloud details: Mostly Cloudy 3000 ft
LGAV 190550Z 31006KT 9999 BKN030 08/02 Q1022 NOSIG
LGAD - Andravida (civ/A, Greece
Distance from station: W 124 km
Updated: 19-01-2020 07:50
Mostly Cloudy  
Mostly Cloudy  
   Wind: Calm
Wind: Calm
Temperature: 5°C
Dew Point: 3°C
Humidity: 87%
Barometer: 1021 hPa
Clouds: Mostly Cloudy
Visibility: More than 10 km
Cloud details: Few Clouds 2000 ft,
Mostly Cloudy 8000 ft
LGAD 190550Z 00000KT 9999 FEW020 BKN080 05/03 Q1021
LGKL - Kalamata (hel-Af, Greece
Distance from station: SSW 124 km
Updated: 19-01-2020 07:50
Partly Cloudy  
Partly Cloudy  
   Wind: NNW 7.4 km/h
Wind: NNW 7.4 km/h
Temperature: 5°C
Wind Chill: 3°C
Dew Point: 1°C
Humidity: 76%
Barometer: 1021 hPa
Clouds: Partly Cloudy
Visibility: 8 km
Cloud details: Partly Cloudy 4000 ft
LGKL 190550Z 33004KT 8000 SCT040 05/01 Q1021
LGBL - Nea Anchialos, Greece
Distance from station: N 129 km
Updated: 19-01-2020 07:50
Mostly Cloudy  
Mostly Cloudy  
   Wind: NW 11.1 km/h
Wind: NW 11.1 km/h
Temperature: 7°C
Wind Chill: 5°C
Dew Point: 1°C
Humidity: 66%
Barometer: 1023 hPa
Clouds: Mostly Cloudy
Visibility: More than 10 km
Cloud details: Few Clouds 2000 ft,
Mostly Cloudy 4000 ft
LGBL 190550Z 31006KT 9999 FEW020 BKN040 07/01 Q1023

Script developed by  Saratoga-weather.org Adapted for the template by  Weerstation Leuven

You find our weather info also at:

European Weather Network

Weather Underground

AWEKAS

Citizen Weather Observer Program (CWOP)

HAMweather, WeatherForYou, PWS Weather

UK Metoffice

Equipment we use:

Weather-station
Davis Wireless Vantage Pro2

Davis Wireless Vantage Pro2